sensor_id;sensor_type;location;lat;lon;timestamp;temperature;humidity
68439;SHT31;55421;51.600;5.718;2022-08-01T00:02:20;21.79;77.72
68439;SHT31;55421;51.600;5.718;2022-08-01T00:04:46;21.78;77.73
68439;SHT31;55421;51.600;5.718;2022-08-01T00:07:13;21.78;77.76
68439;SHT31;55421;51.600;5.718;2022-08-01T00:09:39;21.78;77.73
68439;SHT31;55421;51.600;5.718;2022-08-01T00:12:05;21.78;77.80
68439;SHT31;55421;51.600;5.718;2022-08-01T00:14:32;21.76;77.84
68439;SHT31;55421;51.600;5.718;2022-08-01T00:16:59;21.75;77.90
68439;SHT31;55421;51.600;5.718;2022-08-01T00:19:25;21.73;77.90
68439;SHT31;55421;51.600;5.718;2022-08-01T00:21:52;21.70;77.92
68439;SHT31;55421;51.600;5.718;2022-08-01T00:24:18;21.72;78.00
68439;SHT31;55421;51.600;5.718;2022-08-01T00:26:44;21.72;77.99
68439;SHT31;55421;51.600;5.718;2022-08-01T00:29:11;21.74;78.00
68439;SHT31;55421;51.600;5.718;2022-08-01T00:31:37;21.72;78.00
68439;SHT31;55421;51.600;5.718;2022-08-01T00:34:03;21.69;78.01
68439;SHT31;55421;51.600;5.718;2022-08-01T00:36:30;21.68;78.10
68439;SHT31;55421;51.600;5.718;2022-08-01T00:38:56;21.69;78.11
68439;SHT31;55421;51.600;5.718;2022-08-01T00:41:23;21.71;78.10
68439;SHT31;55421;51.600;5.718;2022-08-01T00:43:49;21.75;78.11
68439;SHT31;55421;51.600;5.718;2022-08-01T00:46:16;21.76;78.10
68439;SHT31;55421;51.600;5.718;2022-08-01T00:48:42;21.75;78.10
68439;SHT31;55421;51.600;5.718;2022-08-01T00:51:09;21.73;78.14
68439;SHT31;55421;51.600;5.718;2022-08-01T00:53:36;21.70;78.17
68439;SHT31;55421;51.600;5.718;2022-08-01T00:56:03;21.71;78.20
68439;SHT31;55421;51.600;5.718;2022-08-01T00:58:30;21.72;78.20
68439;SHT31;55421;51.600;5.718;2022-08-01T01:00:58;21.70;78.23
68439;SHT31;55421;51.600;5.718;2022-08-01T01:03:26;21.61;78.39
68439;SHT31;55421;51.600;5.718;2022-08-01T01:09:03;21.44;79.06
68439;SHT31;55421;51.600;5.718;2022-08-01T01:14:38;21.50;79.12
68439;SHT31;55421;51.600;5.718;2022-08-01T01:17:17;21.51;79.08
68439;SHT31;55421;51.600;5.718;2022-08-01T01:19:54;21.52;79.05
68439;SHT31;55421;51.600;5.718;2022-08-01T01:22:46;21.52;78.94
68439;SHT31;55421;51.600;5.718;2022-08-01T01:30:53;21.52;78.90
68439;SHT31;55421;51.600;5.718;2022-08-01T01:33:23;21.51;78.85
68439;SHT31;55421;51.600;5.718;2022-08-01T01:35:57;21.52;78.82
68439;SHT31;55421;51.600;5.718;2022-08-01T01:38:29;21.51;78.73
68439;SHT31;55421;51.600;5.718;2022-08-01T01:41:02;21.49;78.68
68439;SHT31;55421;51.600;5.718;2022-08-01T01:43:31;21.46;78.60
68439;SHT31;55421;51.600;5.718;2022-08-01T01:46:00;21.42;78.55
68439;SHT31;55421;51.600;5.718;2022-08-01T01:48:29;21.38;78.60
68439;SHT31;55421;51.600;5.718;2022-08-01T01:50:57;21.36;78.64
68439;SHT31;55421;51.600;5.718;2022-08-01T01:53:28;21.32;78.64
68439;SHT31;55421;51.600;5.718;2022-08-01T01:55:59;21.28;78.61
68439;SHT31;55421;51.600;5.718;2022-08-01T01:58:28;21.27;78.64
68439;SHT31;55421;51.600;5.718;2022-08-01T02:00:59;21.24;78.62
68439;SHT31;55421;51.600;5.718;2022-08-01T02:03:28;21.23;78.74
68439;SHT31;55421;51.600;5.718;2022-08-01T02:05:57;21.24;78.73
68439;SHT31;55421;51.600;5.718;2022-08-01T02:08:25;21.24;78.72
68439;SHT31;55421;51.600;5.718;2022-08-01T02:10:55;21.25;78.62
68439;SHT31;55421;51.600;5.718;2022-08-01T02:13:43;21.27;78.56
68439;SHT31;55421;51.600;5.718;2022-08-01T02:16:12;21.30;78.49
68439;SHT31;55421;51.600;5.718;2022-08-01T02:18:41;21.30;78.38
68439;SHT31;55421;51.600;5.718;2022-08-01T02:21:09;21.27;78.25
68439;SHT31;55421;51.600;5.718;2022-08-01T02:23:39;21.23;78.22
68439;SHT31;55421;51.600;5.718;2022-08-01T02:26:09;21.19;78.21
68439;SHT31;55421;51.600;5.718;2022-08-01T02:28:42;21.17;78.21
68439;SHT31;55421;51.600;5.718;2022-08-01T02:31:17;21.16;78.19
68439;SHT31;55421;51.600;5.718;2022-08-01T02:33:55;21.17;78.18
68439;SHT31;55421;51.600;5.718;2022-08-01T02:36:28;21.17;78.03
68439;SHT31;55421;51.600;5.718;2022-08-01T02:38:59;21.15;78.09
68439;SHT31;55421;51.600;5.718;2022-08-01T02:41:30;21.15;78.12
68439;SHT31;55421;51.600;5.718;2022-08-01T02:44:00;21.14;78.10
68439;SHT31;55421;51.600;5.718;2022-08-01T02:46:35;21.15;78.11
68439;SHT31;55421;51.600;5.718;2022-08-01T02:49:06;21.16;78.10
68439;SHT31;55421;51.600;5.718;2022-08-01T02:51:36;21.15;78.10
68439;SHT31;55421;51.600;5.718;2022-08-01T02:54:05;21.14;78.09
68439;SHT31;55421;51.600;5.718;2022-08-01T02:56:34;21.12;78.10
68439;SHT31;55421;51.600;5.718;2022-08-01T02:59:05;21.08;78.15
68439;SHT31;55421;51.600;5.718;2022-08-01T03:01:37;21.07;78.19
68439;SHT31;55421;51.600;5.718;2022-08-01T03:04:05;21.06;78.20
68439;SHT31;55421;51.600;5.718;2022-08-01T03:06:33;21.06;78.21
68439;SHT31;55421;51.600;5.718;2022-08-01T03:09:03;21.08;78.26
68439;SHT31;55421;51.600;5.718;2022-08-01T03:11:32;21.08;78.18
68439;SHT31;55421;51.600;5.718;2022-08-01T03:14:04;21.03;78.17
68439;SHT31;55421;51.600;5.718;2022-08-01T03:16:36;20.97;78.25
68439;SHT31;55421;51.600;5.718;2022-08-01T03:19:08;20.94;78.33
68439;SHT31;55421;51.600;5.718;2022-08-01T03:21:38;20.94;78.37
68439;SHT31;55421;51.600;5.718;2022-08-01T03:24:07;20.95;78.31
68439;SHT31;55421;51.600;5.718;2022-08-01T03:26:36;20.96;78.31
68439;SHT31;55421;51.600;5.718;2022-08-01T03:29:06;20.98;78.23
68439;SHT31;55421;51.600;5.718;2022-08-01T03:31:40;20.94;78.19
68439;SHT31;55421;51.600;5.718;2022-08-01T03:34:11;20.88;78.25
68439;SHT31;55421;51.600;5.718;2022-08-01T03:36:43;20.83;78.29
68439;SHT31;55421;51.600;5.718;2022-08-01T03:39:18;20.79;78.36
68439;SHT31;55421;51.600;5.718;2022-08-01T03:41:55;20.79;78.33
68439;SHT31;55421;51.600;5.718;2022-08-01T03:44:31;20.77;78.30
68439;SHT31;55421;51.600;5.718;2022-08-01T03:47:08;20.76;78.38
68439;SHT31;55421;51.600;5.718;2022-08-01T03:49:41;20.71;78.38
68439;SHT31;55421;51.600;5.718;2022-08-01T03:52:10;20.65;78.41
68439;SHT31;55421;51.600;5.718;2022-08-01T03:54:42;20.63;78.45
68439;SHT31;55421;51.600;5.718;2022-08-01T03:57:14;20.62;78.45
68439;SHT31;55421;51.600;5.718;2022-08-01T03:59:42;20.61;78.41
68439;SHT31;55421;51.600;5.718;2022-08-01T04:02:09;20.59;78.43
68439;SHT31;55421;51.600;5.718;2022-08-01T04:04:37;20.57;78.49
68439;SHT31;55421;51.600;5.718;2022-08-01T04:07:20;20.55;78.50
68439;SHT31;55421;51.600;5.718;2022-08-01T04:09:52;20.52;78.50
68439;SHT31;55421;51.600;5.718;2022-08-01T04:12:19;20.49;78.50
68439;SHT31;55421;51.600;5.718;2022-08-01T04:14:47;20.48;78.49
68439;SHT31;55421;51.600;5.718;2022-08-01T04:17:15;20.47;78.47
68439;SHT31;55421;51.600;5.718;2022-08-01T04:19:42;20.49;78.44
68439;SHT31;55421;51.600;5.718;2022-08-01T04:22:10;20.48;78.37
68439;SHT31;55421;51.600;5.718;2022-08-01T04:24:44;20.45;78.42
68439;SHT31;55421;51.600;5.718;2022-08-01T04:27:17;20.46;78.51
68439;SHT31;55421;51.600;5.718;2022-08-01T04:29:49;20.49;78.44
68439;SHT31;55421;51.600;5.718;2022-08-01T04:32:19;20.50;78.46
68439;SHT31;55421;51.600;5.718;2022-08-01T04:34:47;20.51;78.50
68439;SHT31;55421;51.600;5.718;2022-08-01T04:37:16;20.50;78.59
68439;SHT31;55421;51.600;5.718;2022-08-01T04:39:45;20.52;78.68
68439;SHT31;55421;51.600;5.718;2022-08-01T04:42:14;20.54;78.78
68439;SHT31;55421;51.600;5.718;2022-08-01T04:44:42;20.58;78.73
68439;SHT31;55421;51.600;5.718;2022-08-01T04:47:08;20.58;78.70
68439;SHT31;55421;51.600;5.718;2022-08-01T04:49:36;20.60;78.70
68439;SHT31;55421;51.600;5.718;2022-08-01T04:52:03;20.62;78.74
68439;SHT31;55421;51.600;5.718;2022-08-01T04:54:35;20.66;78.74
68439;SHT31;55421;51.600;5.718;2022-08-01T04:57:04;20.71;78.71
68439;SHT31;55421;51.600;5.718;2022-08-01T04:59:32;20.73;78.70
68439;SHT31;55421;51.600;5.718;2022-08-01T05:02:09;20.73;78.66
68439;SHT31;55421;51.600;5.718;2022-08-01T05:04:39;20.72;78.61
68439;SHT31;55421;51.600;5.718;2022-08-01T05:07:06;20.74;78.60
68439;SHT31;55421;51.600;5.718;2022-08-01T05:09:34;20.77;78.54
68439;SHT31;55421;51.600;5.718;2022-08-01T05:12:02;20.80;78.50
68439;SHT31;55421;51.600;5.718;2022-08-01T05:14:31;20.83;78.42
68439;SHT31;55421;51.600;5.718;2022-08-01T05:16:59;20.83;78.40
68439;SHT31;55421;51.600;5.718;2022-08-01T05:19:35;20.82;78.40
68439;SHT31;55421;51.600;5.718;2022-08-01T05:22:04;20.83;78.47
68439;SHT31;55421;51.600;5.718;2022-08-01T05:24:33;20.84;78.46
68439;SHT31;55421;51.600;5.718;2022-08-01T05:27:03;20.89;78.48
68439;SHT31;55421;51.600;5.718;2022-08-01T05:29:30;20.93;78.48
68439;SHT31;55421;51.600;5.718;2022-08-01T05:31:57;20.99;78.49
68439;SHT31;55421;51.600;5.718;2022-08-01T05:34:25;21.04;78.40
68439;SHT31;55421;51.600;5.718;2022-08-01T05:36:52;21.06;78.36
68439;SHT31;55421;51.600;5.718;2022-08-01T05:39:19;21.09;78.35
68439;SHT31;55421;51.600;5.718;2022-08-01T05:41:45;21.11;78.37
68439;SHT31;55421;51.600;5.718;2022-08-01T05:44:12;21.09;78.41
68439;SHT31;55421;51.600;5.718;2022-08-01T05:46:38;21.10;78.49
68439;SHT31;55421;51.600;5.718;2022-08-01T05:49:05;21.09;78.40
68439;SHT31;55421;51.600;5.718;2022-08-01T05:51:31;21.08;78.43
68439;SHT31;55421;51.600;5.718;2022-08-01T05:53:59;21.08;78.40
68439;SHT31;55421;51.600;5.718;2022-08-01T05:56:25;21.10;78.49
68439;SHT31;55421;51.600;5.718;2022-08-01T05:58:52;21.14;78.48
68439;SHT31;55421;51.600;5.718;2022-08-01T06:01:18;21.17;78.39
68439;SHT31;55421;51.600;5.718;2022-08-01T06:03:47;21.19;78.34
68439;SHT31;55421;51.600;5.718;2022-08-01T06:06:13;21.16;78.17
68439;SHT31;55421;51.600;5.718;2022-08-01T06:08:42;21.12;78.28
68439;SHT31;55421;51.600;5.718;2022-08-01T06:11:09;21.11;78.27
68439;SHT31;55421;51.600;5.718;2022-08-01T06:13:35;21.11;78.24
68439;SHT31;55421;51.600;5.718;2022-08-01T06:16:01;21.11;78.34
68439;SHT31;55421;51.600;5.718;2022-08-01T06:18:28;21.13;78.33
68439;SHT31;55421;51.600;5.718;2022-08-01T06:20:54;21.16;78.38
68439;SHT31;55421;51.600;5.718;2022-08-01T06:23:21;21.21;78.34
68439;SHT31;55421;51.600;5.718;2022-08-01T06:25:48;21.22;78.34
68439;SHT31;55421;51.600;5.718;2022-08-01T06:28:18;21.24;78.39
68439;SHT31;55421;51.600;5.718;2022-08-01T06:30:44;21.25;78.29
68439;SHT31;55421;51.600;5.718;2022-08-01T06:33:11;21.27;78.31
68439;SHT31;55421;51.600;5.718;2022-08-01T06:35:37;21.31;78.26
68439;SHT31;55421;51.600;5.718;2022-08-01T06:38:03;21.34;78.27
68439;SHT31;55421;51.600;5.718;2022-08-01T06:40:30;21.37;78.23
68439;SHT31;55421;51.600;5.718;2022-08-01T06:42:56;21.37;78.11
68439;SHT31;55421;51.600;5.718;2022-08-01T06:45:23;21.36;78.09
68439;SHT31;55421;51.600;5.718;2022-08-01T06:47:51;21.34;78.02
68439;SHT31;55421;51.600;5.718;2022-08-01T06:50:18;21.36;78.14
68439;SHT31;55421;51.600;5.718;2022-08-01T06:52:45;21.38;78.10
68439;SHT31;55421;51.600;5.718;2022-08-01T06:55:11;21.42;78.19
68439;SHT31;55421;51.600;5.718;2022-08-01T06:57:50;21.48;78.20
68439;SHT31;55421;51.600;5.718;2022-08-01T07:00:20;21.57;78.08
68439;SHT31;55421;51.600;5.718;2022-08-01T07:02:52;21.64;77.76
68439;SHT31;55421;51.600;5.718;2022-08-01T07:05:21;21.76;77.71
68439;SHT31;55421;51.600;5.718;2022-08-01T07:07:48;21.85;77.46
68439;SHT31;55421;51.600;5.718;2022-08-01T07:10:15;21.90;77.14
68439;SHT31;55421;51.600;5.718;2022-08-01T07:12:42;21.92;76.91
68439;SHT31;55421;51.600;5.718;2022-08-01T07:15:08;21.93;76.31
68439;SHT31;55421;51.600;5.718;2022-08-01T07:17:39;21.90;76.42
68439;SHT31;55421;51.600;5.718;2022-08-01T07:20:09;21.90;76.29
68439;SHT31;55421;51.600;5.718;2022-08-01T07:22:40;21.92;76.22
68439;SHT31;55421;51.600;5.718;2022-08-01T07:25:06;21.91;76.29
68439;SHT31;55421;51.600;5.718;2022-08-01T07:27:34;21.94;76.26
68439;SHT31;55421;51.600;5.718;2022-08-01T07:30:02;21.91;75.46
68439;SHT31;55421;51.600;5.718;2022-08-01T07:32:30;21.89;75.35
68439;SHT31;55421;51.600;5.718;2022-08-01T07:34:57;21.92;75.00
68439;SHT31;55421;51.600;5.718;2022-08-01T07:37:23;21.92;74.80
68439;SHT31;55421;51.600;5.718;2022-08-01T07:39:50;21.92;74.75
68439;SHT31;55421;51.600;5.718;2022-08-01T07:42:17;21.95;74.88
68439;SHT31;55421;51.600;5.718;2022-08-01T07:44:43;22.09;74.99
68439;SHT31;55421;51.600;5.718;2022-08-01T07:47:10;22.25;74.36
68439;SHT31;55421;51.600;5.718;2022-08-01T07:49:37;22.37;74.09
68439;SHT31;55421;51.600;5.718;2022-08-01T07:52:03;22.49;73.91
68439;SHT31;55421;51.600;5.718;2022-08-01T07:54:33;22.55;73.80
68439;SHT31;55421;51.600;5.718;2022-08-01T07:57:00;22.56;73.59
68439;SHT31;55421;51.600;5.718;2022-08-01T07:59:27;22.55;73.29
68439;SHT31;55421;51.600;5.718;2022-08-01T08:01:54;22.57;72.99
68439;SHT31;55421;51.600;5.718;2022-08-01T08:04:20;22.67;72.85
68439;SHT31;55421;51.600;5.718;2022-08-01T08:06:47;22.79;73.10
68439;SHT31;55421;51.600;5.718;2022-08-01T08:09:15;22.97;73.13
68439;SHT31;55421;51.600;5.718;2022-08-01T08:11:42;23.19;72.64
68439;SHT31;55421;51.600;5.718;2022-08-01T08:14:10;23.36;71.95
68439;SHT31;55421;51.600;5.718;2022-08-01T08:16:37;23.50;71.73
68439;SHT31;55421;51.600;5.718;2022-08-01T08:19:04;23.59;71.30
68439;SHT31;55421;51.600;5.718;2022-08-01T08:21:31;23.64;71.22
68439;SHT31;55421;51.600;5.718;2022-08-01T08:23:57;23.77;71.14
68439;SHT31;55421;51.600;5.718;2022-08-01T08:26:42;23.93;70.72
68439;SHT31;55421;51.600;5.718;2022-08-01T08:29:09;23.91;70.02
68439;SHT31;55421;51.600;5.718;2022-08-01T08:31:35;23.77;69.47
68439;SHT31;55421;51.600;5.718;2022-08-01T08:34:02;23.65;69.87
68439;SHT31;55421;51.600;5.718;2022-08-01T08:36:28;23.58;70.23
68439;SHT31;55421;51.600;5.718;2022-08-01T08:38:55;23.53;70.25
68439;SHT31;55421;51.600;5.718;2022-08-01T08:41:22;23.55;69.97
68439;SHT31;55421;51.600;5.718;2022-08-01T08:43:48;23.52;69.61
68439;SHT31;55421;51.600;5.718;2022-08-01T08:46:15;23.41;69.63
68439;SHT31;55421;51.600;5.718;2022-08-01T08:48:42;23.33;70.12
68439;SHT31;55421;51.600;5.718;2022-08-01T08:51:09;23.27;69.70
68439;SHT31;55421;51.600;5.718;2022-08-01T08:53:38;23.33;69.87
68439;SHT31;55421;51.600;5.718;2022-08-01T08:56:13;23.50;70.13
68439;SHT31;55421;51.600;5.718;2022-08-01T08:58:44;23.62;69.95
68439;SHT31;55421;51.600;5.718;2022-08-01T09:01:11;23.65;69.17
68439;SHT31;55421;51.600;5.718;2022-08-01T09:03:39;23.55;68.72
68439;SHT31;55421;51.600;5.718;2022-08-01T09:06:06;23.47;68.93
68439;SHT31;55421;51.600;5.718;2022-08-01T09:08:33;23.46;69.04
68439;SHT31;55421;51.600;5.718;2022-08-01T09:10:59;23.66;69.20
68439;SHT31;55421;51.600;5.718;2022-08-01T09:13:26;23.83;68.68
68439;SHT31;55421;51.600;5.718;2022-08-01T09:15:53;23.90;68.65
68439;SHT31;55421;51.600;5.718;2022-08-01T09:18:30;23.84;68.21
68439;SHT31;55421;51.600;5.718;2022-08-01T09:21:07;23.71;67.90
68439;SHT31;55421;51.600;5.718;2022-08-01T09:23:38;23.55;67.74
68439;SHT31;55421;51.600;5.718;2022-08-01T09:26:10;23.41;68.07
68439;SHT31;55421;51.600;5.718;2022-08-01T09:28:40;23.42;67.91
68439;SHT31;55421;51.600;5.718;2022-08-01T09:31:11;23.59;68.28
68439;SHT31;55421;51.600;5.718;2022-08-01T09:36:43;24.22;67.99
68439;SHT31;55421;51.600;5.718;2022-08-01T09:41:56;24.92;66.12
68439;SHT31;55421;51.600;5.718;2022-08-01T09:44:47;24.82;65.70
68439;SHT31;55421;51.600;5.718;2022-08-01T09:47:12;24.61;65.41
68439;SHT31;55421;51.600;5.718;2022-08-01T09:49:40;24.39;65.34
68439;SHT31;55421;51.600;5.718;2022-08-01T09:54:58;24.03;65.87
68439;SHT31;55421;51.600;5.718;2022-08-01T09:57:27;23.88;65.66
68439;SHT31;55421;51.600;5.718;2022-08-01T09:59:56;23.78;66.17
68439;SHT31;55421;51.600;5.718;2022-08-01T10:02:32;23.89;66.43
68439;SHT31;55421;51.600;5.718;2022-08-01T10:05:03;24.08;66.49
68439;SHT31;55421;51.600;5.718;2022-08-01T10:07:32;24.30;65.90
68439;SHT31;55421;51.600;5.718;2022-08-01T10:10:10;24.54;65.70
68439;SHT31;55421;51.600;5.718;2022-08-01T10:12:39;24.81;64.82
68439;SHT31;55421;51.600;5.718;2022-08-01T10:15:07;25.06;64.06
68439;SHT31;55421;51.600;5.718;2022-08-01T10:17:36;25.31;63.74
68439;SHT31;55421;51.600;5.718;2022-08-01T10:20:05;25.55;63.30
68439;SHT31;55421;51.600;5.718;2022-08-01T10:22:33;25.75;62.39
68439;SHT31;55421;51.600;5.718;2022-08-01T10:25:04;25.84;62.30
68439;SHT31;55421;51.600;5.718;2022-08-01T10:27:32;25.65;61.23
68439;SHT31;55421;51.600;5.718;2022-08-01T10:30:03;25.29;61.20
68439;SHT31;55421;51.600;5.718;2022-08-01T10:32:32;24.94;61.82
68439;SHT31;55421;51.600;5.718;2022-08-01T10:35:01;24.65;61.97
68439;SHT31;55421;51.600;5.718;2022-08-01T10:37:30;24.42;62.49
68439;SHT31;55421;51.600;5.718;2022-08-01T10:39:58;24.29;62.68
68439;SHT31;55421;51.600;5.718;2022-08-01T10:42:26;24.21;63.17
68439;SHT31;55421;51.600;5.718;2022-08-01T10:44:54;24.18;63.42
68439;SHT31;55421;51.600;5.718;2022-08-01T10:47:24;24.23;63.63
68439;SHT31;55421;51.600;5.718;2022-08-01T10:50:04;24.30;63.67
68439;SHT31;55421;51.600;5.718;2022-08-01T10:53:03;24.30;63.28
68439;SHT31;55421;51.600;5.718;2022-08-01T10:55:50;24.26;63.74
68439;SHT31;55421;51.600;5.718;2022-08-01T10:58:21;24.28;63.61
68439;SHT31;55421;51.600;5.718;2022-08-01T11:01:14;24.37;63.61
68439;SHT31;55421;51.600;5.718;2022-08-01T11:06:42;24.96;63.05
68439;SHT31;55421;51.600;5.718;2022-08-01T11:09:29;24.84;62.35
68439;SHT31;55421;51.600;5.718;2022-08-01T11:12:08;24.66;63.36
68439;SHT31;55421;51.600;5.718;2022-08-01T11:17:41;24.36;63.95
68439;SHT31;55421;51.600;5.718;2022-08-01T11:20:21;24.36;63.75
68439;SHT31;55421;51.600;5.718;2022-08-01T11:33:18;24.41;63.48
68439;SHT31;55421;51.600;5.718;2022-08-01T11:38:37;24.43;63.50
68439;SHT31;55421;51.600;5.718;2022-08-01T11:41:22;24.49;63.34
68439;SHT31;55421;51.600;5.718;2022-08-01T11:44:00;24.61;63.06
68439;SHT31;55421;51.600;5.718;2022-08-01T11:46:48;24.69;62.77
68439;SHT31;55421;51.600;5.718;2022-08-01T11:52:07;24.58;61.02
68439;SHT31;55421;51.600;5.718;2022-08-01T11:54:46;24.48;61.41
68439;SHT31;55421;51.600;5.718;2022-08-01T11:57:22;24.53;60.73
68439;SHT31;55421;51.600;5.718;2022-08-01T11:59:57;24.61;60.31
68439;SHT31;55421;51.600;5.718;2022-08-01T12:05:00;24.53;59.92
68439;SHT31;55421;51.600;5.718;2022-08-01T12:07:34;24.64;59.02
68439;SHT31;55421;51.600;5.718;2022-08-01T12:10:06;24.81;59.61
68439;SHT31;55421;51.600;5.718;2022-08-01T12:12:44;25.00;59.04
68439;SHT31;55421;51.600;5.718;2022-08-01T12:15:17;25.12;59.44
68439;SHT31;55421;51.600;5.718;2022-08-01T12:17:48;25.25;59.08
68439;SHT31;55421;51.600;5.718;2022-08-01T12:20:22;25.24;58.70
68439;SHT31;55421;51.600;5.718;2022-08-01T12:22:57;25.26;58.74
68439;SHT31;55421;51.600;5.718;2022-08-01T12:25:33;25.25;58.85
68439;SHT31;55421;51.600;5.718;2022-08-01T12:28:02;25.27;58.33
68439;SHT31;55421;51.600;5.718;2022-08-01T12:30:31;25.14;57.83
68439;SHT31;55421;51.600;5.718;2022-08-01T12:33:05;24.97;57.11
68439;SHT31;55421;51.600;5.718;2022-08-01T12:35:35;24.81;58.06
68439;SHT31;55421;51.600;5.718;2022-08-01T12:38:16;24.69;58.75
68439;SHT31;55421;51.600;5.718;2022-08-01T12:40:47;24.58;58.95
68439;SHT31;55421;51.600;5.718;2022-08-01T12:43:18;24.51;59.27
68439;SHT31;55421;51.600;5.718;2022-08-01T12:45:47;24.47;59.35
68439;SHT31;55421;51.600;5.718;2022-08-01T12:48:16;24.39;59.63
68439;SHT31;55421;51.600;5.718;2022-08-01T12:50:45;24.40;60.28
68439;SHT31;55421;51.600;5.718;2022-08-01T12:53:16;24.42;59.55
68439;SHT31;55421;51.600;5.718;2022-08-01T12:55:49;24.39;59.80
68439;SHT31;55421;51.600;5.718;2022-08-01T12:58:19;24.48;59.75
68439;SHT31;55421;51.600;5.718;2022-08-01T13:00:47;24.59;59.88
68439;SHT31;55421;51.600;5.718;2022-08-01T13:05:45;24.65;59.87
68439;SHT31;55421;51.600;5.718;2022-08-01T13:08:16;24.61;58.81
68439;SHT31;55421;51.600;5.718;2022-08-01T13:10:48;24.53;58.80
68439;SHT31;55421;51.600;5.718;2022-08-01T13:13:16;24.47;59.09
68439;SHT31;55421;51.600;5.718;2022-08-01T13:15:46;24.41;59.39
68439;SHT31;55421;51.600;5.718;2022-08-01T13:18:33;24.39;59.16
68439;SHT31;55421;51.600;5.718;2022-08-01T13:29:17;24.45;60.01
68439;SHT31;55421;51.600;5.718;2022-08-01T13:31:55;24.48;60.18
68439;SHT31;55421;51.600;5.718;2022-08-01T13:34:31;24.36;59.83
68439;SHT31;55421;51.600;5.718;2022-08-01T13:36:59;24.26;60.22
68439;SHT31;55421;51.600;5.718;2022-08-01T13:39:30;24.16;60.03
68439;SHT31;55421;51.600;5.718;2022-08-01T13:42:07;24.10;60.24
68439;SHT31;55421;51.600;5.718;2022-08-01T13:44:35;24.08;60.57
68439;SHT31;55421;51.600;5.718;2022-08-01T13:47:04;24.13;60.34
68439;SHT31;55421;51.600;5.718;2022-08-01T13:49:32;24.17;59.82
68439;SHT31;55421;51.600;5.718;2022-08-01T13:51:59;24.26;59.65
68439;SHT31;55421;51.600;5.718;2022-08-01T13:54:27;24.39;59.71
68439;SHT31;55421;51.600;5.718;2022-08-01T13:56:53;24.44;59.10
68439;SHT31;55421;51.600;5.718;2022-08-01T13:59:20;24.47;58.67
68439;SHT31;55421;51.600;5.718;2022-08-01T14:01:46;24.53;58.47
68439;SHT31;55421;51.600;5.718;2022-08-01T14:04:13;24.59;58.51
68439;SHT31;55421;51.600;5.718;2022-08-01T14:06:41;24.66;58.36
68439;SHT31;55421;51.600;5.718;2022-08-01T14:09:08;24.72;58.64
68439;SHT31;55421;51.600;5.718;2022-08-01T14:11:35;24.81;58.75
68439;SHT31;55421;51.600;5.718;2022-08-01T14:14:02;24.86;58.32
68439;SHT31;55421;51.600;5.718;2022-08-01T14:16:28;24.86;58.13
68439;SHT31;55421;51.600;5.718;2022-08-01T14:18:54;24.96;57.46
68439;SHT31;55421;51.600;5.718;2022-08-01T14:21:21;25.00;56.37
68439;SHT31;55421;51.600;5.718;2022-08-01T14:23:47;24.91;56.47
68439;SHT31;55421;51.600;5.718;2022-08-01T14:26:14;24.85;56.68
68439;SHT31;55421;51.600;5.718;2022-08-01T14:28:40;24.82;56.41
68439;SHT31;55421;51.600;5.718;2022-08-01T14:31:06;24.80;56.38
68439;SHT31;55421;51.600;5.718;2022-08-01T14:33:33;24.80;56.81
68439;SHT31;55421;51.600;5.718;2022-08-01T14:36:00;24.84;56.90
68439;SHT31;55421;51.600;5.718;2022-08-01T14:38:27;24.93;56.64
68439;SHT31;55421;51.600;5.718;2022-08-01T14:40:53;25.00;55.59
68439;SHT31;55421;51.600;5.718;2022-08-01T14:43:20;25.06;54.42
68439;SHT31;55421;51.600;5.718;2022-08-01T14:45:47;25.07;54.41
68439;SHT31;55421;51.600;5.718;2022-08-01T14:48:18;25.06;55.22
68439;SHT31;55421;51.600;5.718;2022-08-01T14:50:44;25.04;55.45
68439;SHT31;55421;51.600;5.718;2022-08-01T14:53:11;25.00;55.27
68439;SHT31;55421;51.600;5.718;2022-08-01T14:55:37;24.89;55.19
68439;SHT31;55421;51.600;5.718;2022-08-01T14:58:04;24.76;55.42
68439;SHT31;55421;51.600;5.718;2022-08-01T15:00:30;24.73;55.04
68439;SHT31;55421;51.600;5.718;2022-08-01T15:02:57;24.70;55.10
68439;SHT31;55421;51.600;5.718;2022-08-01T15:05:23;24.73;55.49
68439;SHT31;55421;51.600;5.718;2022-08-01T15:07:50;24.80;55.33
68439;SHT31;55421;51.600;5.718;2022-08-01T15:10:16;24.85;54.55
68439;SHT31;55421;51.600;5.718;2022-08-01T15:12:46;24.87;54.16
68439;SHT31;55421;51.600;5.718;2022-08-01T15:15:12;24.88;54.19
68439;SHT31;55421;51.600;5.718;2022-08-01T15:17:38;24.95;54.74
68439;SHT31;55421;51.600;5.718;2022-08-01T15:20:05;25.05;54.18
68439;SHT31;55421;51.600;5.718;2022-08-01T15:22:33;24.99;53.69
68439;SHT31;55421;51.600;5.718;2022-08-01T15:25:00;24.91;54.22
68439;SHT31;55421;51.600;5.718;2022-08-01T15:27:28;24.88;54.28
68439;SHT31;55421;51.600;5.718;2022-08-01T15:29:55;24.86;54.31
68439;SHT31;55421;51.600;5.718;2022-08-01T15:32:22;24.81;54.69
68439;SHT31;55421;51.600;5.718;2022-08-01T15:34:50;24.81;54.83
68439;SHT31;55421;51.600;5.718;2022-08-01T15:37:16;24.85;54.79
68439;SHT31;55421;51.600;5.718;2022-08-01T15:39:43;24.85;54.77
68439;SHT31;55421;51.600;5.718;2022-08-01T15:42:11;24.80;54.30
68439;SHT31;55421;51.600;5.718;2022-08-01T15:44:39;24.70;54.17
68439;SHT31;55421;51.600;5.718;2022-08-01T15:47:07;24.63;54.18
68439;SHT31;55421;51.600;5.718;2022-08-01T15:49:35;24.65;53.94
68439;SHT31;55421;51.600;5.718;2022-08-01T15:52:04;24.71;54.21
68439;SHT31;55421;51.600;5.718;2022-08-01T15:54:35;24.77;54.18
68439;SHT31;55421;51.600;5.718;2022-08-01T15:57:02;24.82;54.23
68439;SHT31;55421;51.600;5.718;2022-08-01T15:59:29;24.83;54.06
68439;SHT31;55421;51.600;5.718;2022-08-01T16:01:55;24.78;53.74
68439;SHT31;55421;51.600;5.718;2022-08-01T16:04:22;24.74;53.72
68439;SHT31;55421;51.600;5.718;2022-08-01T16:06:48;24.69;53.70
68439;SHT31;55421;51.600;5.718;2022-08-01T16:09:14;24.60;54.07
68439;SHT31;55421;51.600;5.718;2022-08-01T16:11:41;24.57;54.38
68439;SHT31;55421;51.600;5.718;2022-08-01T16:14:07;24.56;53.75
68439;SHT31;55421;51.600;5.718;2022-08-01T16:16:34;24.56;53.12
68439;SHT31;55421;51.600;5.718;2022-08-01T16:19:00;24.54;52.81
68439;SHT31;55421;51.600;5.718;2022-08-01T16:21:26;24.51;53.02
68439;SHT31;55421;51.600;5.718;2022-08-01T16:23:53;24.46;52.59
68439;SHT31;55421;51.600;5.718;2022-08-01T16:26:19;24.36;52.25
68439;SHT31;55421;51.600;5.718;2022-08-01T16:28:46;24.30;52.31
68439;SHT31;55421;51.600;5.718;2022-08-01T16:31:14;24.26;52.21
68439;SHT31;55421;51.600;5.718;2022-08-01T16:33:41;24.22;52.24
68439;SHT31;55421;51.600;5.718;2022-08-01T16:36:08;24.18;52.25
68439;SHT31;55421;51.600;5.718;2022-08-01T16:38:34;24.14;51.96
68439;SHT31;55421;51.600;5.718;2022-08-01T16:41:01;24.06;51.93